Terminal Aerodrome Forecast
Issued by NWS

Home | Current Version | Previous Version | Text Only | Print | Product List | Glossary On
Versions: 1 2 3 4 5 6 7 8 9 10 11 12 13 14 15 16 17 18 19 20 21 22 23
000
FTUS43 KDLH 281132
TAFHIB
TAF
KHIB 281132Z 2812/2912 14007KT P6SM BKN014
      TEMPO 2814/2816 -SHRA BKN008
     FM281600 17015KT P6SM VCSH OVC100
     FM281800 18012G20KT P6SM VCTS BKN100CB
      TEMPO 2821/2824 4SM -TSRA OVC050CB
     FM290400 25010KT P6SM SKC=

USA.gov is the U.S. government's official web portal to all federal, state and local government web resources and services.